createdAt,value
2022-12-14T00:02:04.557Z,-5.39
2022-12-14T00:04:33.637Z,-5.42
2022-12-14T00:07:04.163Z,-5.46
2022-12-14T00:09:34.018Z,-5.51
2022-12-14T00:12:03.014Z,-5.53
2022-12-14T00:14:32.349Z,-5.57
2022-12-14T00:17:02.718Z,-5.63
2022-12-14T00:19:32.486Z,-5.68
2022-12-14T00:22:02.895Z,-5.75
2022-12-14T00:24:32.397Z,-5.80
2022-12-14T00:27:01.404Z,-5.85
2022-12-14T00:29:30.342Z,-5.89
2022-12-14T00:31:59.340Z,-5.96
2022-12-14T00:34:29.878Z,-6.05
2022-12-14T00:37:00.021Z,-6.12
2022-12-14T00:39:30.281Z,-6.19
2022-12-14T00:42:02.459Z,-6.26
2022-12-14T00:44:31.852Z,-6.34
2022-12-14T00:47:02.302Z,-6.40
2022-12-14T00:49:31.495Z,-6.44
2022-12-14T00:52:01.716Z,-6.44
2022-12-14T00:54:32.125Z,-6.47
2022-12-14T00:57:02.061Z,-6.49
2022-12-14T00:59:33.103Z,-6.55
2022-12-14T01:02:03.456Z,-6.59
2022-12-14T01:04:32.562Z,-6.66
2022-12-14T01:07:04.283Z,-6.71
2022-12-14T01:09:36.279Z,-6.76
2022-12-14T01:12:06.238Z,-6.79
2022-12-14T01:14:36.695Z,-6.83
2022-12-14T01:17:07.461Z,-6.85
2022-12-14T01:19:38.587Z,-6.86
2022-12-14T01:22:10.920Z,-6.88
2022-12-14T01:24:40.709Z,-6.90
2022-12-14T01:27:09.771Z,-6.93
2022-12-14T01:29:39.016Z,-6.94
2022-12-14T01:32:09.674Z,-6.98
2022-12-14T01:34:39.536Z,-7.00
2022-12-14T01:37:09.616Z,-7.04
2022-12-14T01:39:38.629Z,-7.06
2022-12-14T01:42:13.862Z,-7.06
2022-12-14T01:44:43.041Z,-7.10
2022-12-14T01:47:29.351Z,-7.12
2022-12-14T01:50:02.711Z,-7.16
2022-12-14T01:52:47.786Z,-7.23
2022-12-14T01:55:28.334Z,-7.23
2022-12-14T01:58:02.820Z,-7.25
2022-12-14T02:00:33.441Z,-7.27
2022-12-14T02:03:16.777Z,-7.31
2022-12-14T02:05:52.039Z,-7.34
2022-12-14T02:08:24.427Z,-7.37
2022-12-14T02:10:58.994Z,-7.40
2022-12-14T02:13:41.043Z,-7.41
2022-12-14T02:16:11.985Z,-7.42
2022-12-14T02:18:42.433Z,-7.44
2022-12-14T02:21:23.391Z,-7.47
2022-12-14T02:24:34.970Z,-7.48
2022-12-14T02:27:25.406Z,-7.51
2022-12-14T02:30:04.944Z,-7.49
2022-12-14T02:32:59.015Z,-7.50
2022-12-14T02:35:32.375Z,-7.50
2022-12-14T02:38:08.554Z,-7.48
2022-12-14T02:40:47.996Z,-7.48
2022-12-14T02:43:33.601Z,-7.48
2022-12-14T02:46:24.327Z,-7.49
2022-12-14T02:49:49.393Z,-7.51
2022-12-14T02:52:40.012Z,-7.55
2022-12-14T02:55:25.056Z,-7.58
2022-12-14T02:58:24.785Z,-7.59
2022-12-14T03:00:56.264Z,-7.58
2022-12-14T03:03:26.078Z,-7.55
2022-12-14T03:06:15.057Z,-7.54
2022-12-14T03:08:47.961Z,-7.52
2022-12-14T03:11:24.221Z,-7.52
2022-12-14T03:14:06.061Z,-7.52
2022-12-14T03:16:43.503Z,-7.51
2022-12-14T03:19:30.945Z,-7.51
2022-12-14T03:22:05.359Z,-7.51
2022-12-14T03:24:43.656Z,-7.52
2022-12-14T03:27:23.347Z,-7.58
2022-12-14T03:29:59.693Z,-7.60
2022-12-14T03:32:31.683Z,-7.60
2022-12-14T03:35:08.874Z,-7.58
2022-12-14T03:38:13.965Z,-7.57
2022-12-14T03:40:53.300Z,-7.56
2022-12-14T03:43:38.699Z,-7.56
2022-12-14T03:46:23.183Z,-7.61
2022-12-14T03:48:57.222Z,-7.68
2022-12-14T03:51:51.841Z,-7.72
2022-12-14T03:54:46.342Z,-7.78
2022-12-14T03:57:46.858Z,-7.85
2022-12-14T04:00:22.983Z,-7.91
2022-12-14T04:03:13.417Z,-7.93
2022-12-14T04:05:53.160Z,-7.97
2022-12-14T04:08:28.027Z,-8.01
2022-12-14T04:11:19.600Z,-8.05
2022-12-14T04:14:17.432Z,-8.08
2022-12-14T04:17:09.867Z,-8.08
2022-12-14T04:19:49.343Z,-8.11
2022-12-14T04:22:25.571Z,-8.18
2022-12-14T04:25:34.342Z,-8.22
2022-12-14T04:28:34.872Z,-8.25
2022-12-14T04:31:10.984Z,-8.30
2022-12-14T04:33:47.777Z,-8.32
2022-12-14T04:36:30.868Z,-8.33
2022-12-14T04:39:08.199Z,-8.34
2022-12-14T04:41:50.200Z,-8.34
2022-12-14T04:44:36.200Z,-8.34
2022-12-14T04:47:16.319Z,-8.38
2022-12-14T04:49:54.325Z,-8.39
2022-12-14T04:52:49.602Z,-8.40
2022-12-14T04:55:21.778Z,-8.41
2022-12-14T04:58:14.093Z,-8.43
2022-12-14T05:01:09.833Z,-8.41
2022-12-14T05:04:14.302Z,-8.39
2022-12-14T05:07:04.138Z,-8.33
2022-12-14T05:09:59.835Z,-8.28
2022-12-14T05:12:48.857Z,-8.20
2022-12-14T05:15:23.983Z,-8.14
2022-12-14T05:17:54.954Z,-8.07
2022-12-14T05:20:27.801Z,-8.01
2022-12-14T05:22:57.023Z,-7.97
2022-12-14T05:25:26.745Z,-7.97
2022-12-14T05:27:55.980Z,-7.99
2022-12-14T05:30:25.379Z,-8.00
2022-12-14T05:32:54.679Z,-8.00
2022-12-14T05:35:25.635Z,-7.99
2022-12-14T05:37:57.469Z,-8.00
2022-12-14T05:40:27.130Z,-8.02
2022-12-14T05:43:12.670Z,-8.04
2022-12-14T05:45:43.344Z,-8.08
2022-12-14T05:48:13.382Z,-8.12
2022-12-14T05:50:44.010Z,-8.16
2022-12-14T05:53:13.267Z,-8.20
2022-12-14T05:55:49.137Z,-8.23
2022-12-14T05:58:19.002Z,-8.27
2022-12-14T06:00:49.368Z,-8.29
2022-12-14T06:03:18.514Z,-8.32
2022-12-14T06:05:47.883Z,-8.36
2022-12-14T06:08:17.496Z,-8.42
2022-12-14T06:10:49.863Z,-8.47
2022-12-14T06:13:21.246Z,-8.51
2022-12-14T06:15:50.583Z,-8.57
2022-12-14T06:18:22.141Z,-8.61
2022-12-14T06:20:51.205Z,-8.64
2022-12-14T06:23:24.002Z,-8.68
2022-12-14T06:25:55.989Z,-8.72
2022-12-14T06:28:26.557Z,-8.77
2022-12-14T06:30:55.780Z,-8.82
2022-12-14T06:33:25.984Z,-8.86
2022-12-14T06:35:57.285Z,-8.92
2022-12-14T06:38:27.479Z,-8.98
2022-12-14T06:40:56.703Z,-9.03
2022-12-14T06:43:28.115Z,-9.06
2022-12-14T06:45:57.845Z,-9.08
2022-12-14T06:48:53.175Z,-9.11
2022-12-14T06:51:24.030Z,-9.13
2022-12-14T06:53:55.272Z,-9.14
2022-12-14T06:56:29.223Z,-9.14
2022-12-14T06:58:58.912Z,-9.12
2022-12-14T07:01:29.585Z,-9.11
2022-12-14T07:04:00.454Z,-9.08
2022-12-14T07:06:33.825Z,-9.05
2022-12-14T07:09:04.503Z,-9.02
2022-12-14T07:11:34.746Z,-8.98
2022-12-14T07:14:06.695Z,-8.92
2022-12-14T07:16:37.564Z,-8.86
2022-12-14T07:19:06.773Z,-8.81
2022-12-14T07:21:35.974Z,-8.74
2022-12-14T07:24:06.578Z,-8.67
2022-12-14T07:26:37.748Z,-8.61
2022-12-14T07:29:07.108Z,-8.53
2022-12-14T07:31:36.754Z,-8.44
2022-12-14T07:34:06.064Z,-8.34
2022-12-14T07:36:35.261Z,-8.27
2022-12-14T07:39:05.424Z,-8.20
2022-12-14T07:41:35.920Z,-8.12
2022-12-14T07:44:05.873Z,-8.06
2022-12-14T07:46:35.846Z,-8.01
2022-12-14T07:49:06.902Z,-7.95
2022-12-14T07:51:38.968Z,-7.89
2022-12-14T07:54:09.239Z,-7.82
2022-12-14T07:56:43.453Z,-7.74
2022-12-14T07:59:16.741Z,-7.66
2022-12-14T08:01:46.607Z,-7.62
2022-12-14T08:04:20.320Z,-7.56
2022-12-14T08:06:50.785Z,-7.51
2022-12-14T08:09:20.538Z,-7.46
2022-12-14T08:11:50.903Z,-7.41
2022-12-14T08:14:20.198Z,-7.34
2022-12-14T08:16:50.556Z,-7.27
2022-12-14T08:19:21.476Z,-7.20
2022-12-14T08:21:50.574Z,-7.08
2022-12-14T08:24:21.257Z,-7.00
2022-12-14T08:26:53.306Z,-6.91
2022-12-14T08:29:22.823Z,-6.87
2022-12-14T08:31:58.554Z,-6.80
2022-12-14T08:34:29.081Z,-6.73
2022-12-14T08:36:58.417Z,-6.70
2022-12-14T08:39:27.684Z,-6.69
2022-12-14T08:41:56.753Z,-6.67
2022-12-14T08:44:26.253Z,-6.60
2022-12-14T08:46:56.161Z,-6.50
2022-12-14T08:49:32.059Z,-6.43
2022-12-14T08:52:01.892Z,-6.38
2022-12-14T08:54:31.944Z,-6.32
2022-12-14T08:57:02.123Z,-6.30
2022-12-14T09:00:00.107Z,-6.24
2022-12-14T09:02:21.622Z,-6.14
2022-12-14T09:04:51.309Z,-6.06
2022-12-14T09:07:21.377Z,-5.97
2022-12-14T09:09:51.221Z,-5.92
2022-12-14T09:12:21.263Z,-5.90
2022-12-14T09:14:52.008Z,-5.88
2022-12-14T09:17:21.608Z,-5.83
2022-12-14T09:19:52.500Z,-5.78
2022-12-14T09:22:25.226Z,-5.72
2022-12-14T09:24:55.103Z,-5.62
2022-12-14T09:27:26.225Z,-5.56
2022-12-14T09:29:55.383Z,-5.49
2022-12-14T09:32:25.718Z,-5.44
2022-12-14T09:34:54.844Z,-5.33
2022-12-14T09:37:24.350Z,-5.20
2022-12-14T09:39:55.317Z,-5.11
2022-12-14T09:43:03.599Z,-5.00
2022-12-14T09:45:37.576Z,-4.86
2022-12-14T09:48:19.046Z,-4.96
2022-12-14T09:50:51.546Z,-4.97
2022-12-14T09:53:23.914Z,-4.93
2022-12-14T09:55:56.307Z,-4.87
2022-12-14T09:58:31.310Z,-4.92
2022-12-14T10:01:25.385Z,-4.98
2022-12-14T10:04:14.089Z,-4.91
2022-12-14T10:07:19.362Z,-4.75
2022-12-14T10:10:04.100Z,-4.70
2022-12-14T10:12:56.775Z,-4.72
2022-12-14T10:15:42.632Z,-4.68
2022-12-14T10:18:41.391Z,-4.61
2022-12-14T10:21:13.297Z,-4.51
2022-12-14T10:23:52.761Z,-4.50
2022-12-14T10:26:27.769Z,-4.48
2022-12-14T10:29:03.148Z,-4.34
2022-12-14T10:32:12.655Z,-4.22
2022-12-14T10:34:44.341Z,-4.07
2022-12-14T10:37:48.472Z,-3.99
2022-12-14T10:40:34.178Z,-3.91
2022-12-14T10:43:41.346Z,-3.91
2022-12-14T10:46:35.434Z,-3.87
2022-12-14T10:49:42.302Z,-3.78
2022-12-14T10:52:18.220Z,-3.36
2022-12-14T10:55:03.694Z,-2.91
2022-12-14T10:57:35.974Z,-3.01
2022-12-14T11:00:22.903Z,-2.94
2022-12-14T11:02:58.012Z,-2.73
2022-12-14T11:05:48.398Z,-2.97
2022-12-14T11:08:40.904Z,-3.29
2022-12-14T11:11:19.163Z,-3.45
2022-12-14T11:13:55.107Z,-3.55
2022-12-14T11:16:40.150Z,-3.54
2022-12-14T11:19:21.546Z,-3.51
2022-12-14T11:22:12.872Z,-3.58
2022-12-14T11:24:47.290Z,-3.58
2022-12-14T11:27:21.720Z,-3.66
2022-12-14T11:29:52.434Z,-3.75
2022-12-14T11:32:26.460Z,-3.76
2022-12-14T11:34:59.473Z,-3.62
2022-12-14T11:37:33.281Z,-3.47
2022-12-14T11:40:07.119Z,-3.48
2022-12-14T11:42:37.751Z,-3.62
2022-12-14T11:45:32.810Z,-3.76
2022-12-14T11:48:15.497Z,-3.99
2022-12-14T11:50:51.831Z,-4.23
2022-12-14T11:53:23.405Z,-4.43
2022-12-14T11:56:01.035Z,-4.55
2022-12-14T11:58:54.825Z,-4.55
2022-12-14T12:01:27.261Z,-4.50
2022-12-14T12:03:59.868Z,-4.58
2022-12-14T12:06:30.769Z,-4.56
2022-12-14T12:09:04.861Z,-4.55
2022-12-14T12:11:36.329Z,-4.59
2022-12-14T12:14:31.101Z,-4.59
2022-12-14T12:17:02.023Z,-4.49
2022-12-14T12:19:38.415Z,-4.48
2022-12-14T12:22:12.925Z,-4.48
2022-12-14T12:25:25.782Z,-4.41
2022-12-14T12:28:05.073Z,-4.28
2022-12-14T12:30:39.233Z,-4.19
2022-12-14T12:33:39.449Z,-4.15
2022-12-14T12:36:10.725Z,-4.10
2022-12-14T12:38:49.974Z,-4.08
2022-12-14T12:41:28.045Z,-4.13
2022-12-14T12:44:20.540Z,-4.13
2022-12-14T12:47:25.156Z,-4.07
2022-12-14T12:50:13.784Z,-3.65
2022-12-14T12:53:12.625Z,-3.08
2022-12-14T12:55:58.755Z,-2.88
2022-12-14T12:58:33.355Z,-2.86
2022-12-14T13:01:28.258Z,-2.89
2022-12-14T13:04:03.643Z,-2.72
2022-12-14T13:07:07.574Z,-2.63
2022-12-14T13:09:49.105Z,-2.83
2022-12-14T13:12:47.877Z,-3.02
2022-12-14T13:15:41.088Z,-3.19
2022-12-14T13:18:59.185Z,-3.22
2022-12-14T13:21:35.556Z,-3.20
2022-12-14T13:24:07.645Z,-3.44
2022-12-14T13:26:59.140Z,-3.60
2022-12-14T13:29:53.902Z,-3.81
2022-12-14T13:32:57.038Z,-3.90
2022-12-14T13:35:34.777Z,-4.10
2022-12-14T13:38:32.947Z,-4.36
2022-12-14T13:41:31.249Z,-4.54
2022-12-14T13:44:09.897Z,-4.66
2022-12-14T13:46:40.374Z,-4.87
2022-12-14T13:49:23.624Z,-5.08
2022-12-14T13:51:54.564Z,-5.31
2022-12-14T13:54:34.181Z,-5.49
2022-12-14T13:57:12.169Z,-5.66
2022-12-14T13:59:49.373Z,-5.83
2022-12-14T14:02:39.909Z,-6.03
2022-12-14T14:05:19.274Z,-6.22
2022-12-14T14:07:57.654Z,-6.36
2022-12-14T14:10:43.076Z,-6.51
2022-12-14T14:13:27.780Z,-6.69
2022-12-14T14:16:27.962Z,-6.82
2022-12-14T14:19:20.233Z,-6.95
2022-12-14T14:22:25.995Z,-7.03
2022-12-14T14:24:56.670Z,-7.13
2022-12-14T14:27:39.444Z,-7.22
2022-12-14T14:30:37.563Z,-7.30
2022-12-14T14:33:45.360Z,-7.37
2022-12-14T14:36:33.584Z,-7.43
2022-12-14T14:39:38.280Z,-7.51
2022-12-14T14:42:02.474Z,-7.56
2022-12-14T14:44:43.142Z,-7.60
2022-12-14T14:47:39.235Z,-7.64
2022-12-14T14:50:14.482Z,-7.69
2022-12-14T14:52:45.224Z,-7.73
2022-12-14T14:58:22.505Z,-7.80
2022-12-14T15:01:06.807Z,-7.82
2022-12-14T15:04:06.949Z,-7.84
2022-12-14T15:06:42.556Z,-7.87
2022-12-14T15:09:26.405Z,-7.90
2022-12-14T15:12:00.655Z,-7.93
2022-12-14T15:14:48.238Z,-7.96
2022-12-14T15:17:17.805Z,-7.98
2022-12-14T15:20:41.117Z,-7.99
2022-12-14T15:23:16.056Z,-8.00
2022-12-14T15:26:01.700Z,-8.02
2022-12-14T15:28:32.696Z,-8.02
2022-12-14T15:31:02.261Z,-8.01
2022-12-14T15:33:46.375Z,-8.00
2022-12-14T15:36:20.174Z,-7.99
2022-12-14T15:38:55.900Z,-7.97
2022-12-14T15:41:28.827Z,-7.95
2022-12-14T15:44:00.327Z,-7.93
2022-12-14T15:46:33.703Z,-7.91
2022-12-14T15:49:08.633Z,-7.90
2022-12-14T15:51:44.657Z,-7.90
2022-12-14T15:54:24.729Z,-7.88
2022-12-14T15:56:59.348Z,-7.87
2022-12-14T15:59:35.584Z,-7.87
2022-12-14T16:02:35.269Z,-7.88
2022-12-14T16:05:07.057Z,-7.89
2022-12-14T16:07:43.313Z,-7.91
2022-12-14T16:10:33.553Z,-7.93
2022-12-14T16:13:30.627Z,-7.95
2022-12-14T16:16:07.765Z,-7.95
2022-12-14T16:18:51.033Z,-7.97
2022-12-14T16:21:30.525Z,-7.98
2022-12-14T16:24:22.758Z,-7.98
2022-12-14T16:27:02.151Z,-7.99
2022-12-14T16:29:34.833Z,-7.99
2022-12-14T16:32:17.026Z,-7.99
2022-12-14T16:34:58.930Z,-8.00
2022-12-14T16:37:33.492Z,-8.01
2022-12-14T16:40:05.594Z,-8.01
2022-12-14T16:42:36.450Z,-8.03
2022-12-14T16:45:32.142Z,-8.04
2022-12-14T16:48:08.050Z,-8.06
2022-12-14T16:50:56.218Z,-8.08
2022-12-14T16:53:33.339Z,-8.08
2022-12-14T16:56:16.050Z,-8.07
2022-12-14T16:59:24.109Z,-8.07
2022-12-14T17:01:54.462Z,-8.07
2022-12-14T17:04:38.088Z,-8.09
2022-12-14T17:07:07.548Z,-8.10
2022-12-14T17:09:39.155Z,-8.10
2022-12-14T17:12:16.135Z,-8.09
2022-12-14T17:14:50.291Z,-8.12
2022-12-14T17:17:27.917Z,-8.11
2022-12-14T17:19:59.129Z,-8.12
2022-12-14T17:22:32.540Z,-8.12
2022-12-14T17:25:04.278Z,-8.12
2022-12-14T17:27:37.741Z,-8.14
2022-12-14T17:30:09.058Z,-8.15
2022-12-14T17:32:39.963Z,-8.17
2022-12-14T17:35:22.047Z,-8.18
2022-12-14T17:37:54.635Z,-8.20
2022-12-14T17:40:28.187Z,-8.20
2022-12-14T17:43:00.275Z,-8.19
2022-12-14T17:45:32.106Z,-8.18
2022-12-14T17:48:03.882Z,-8.18
2022-12-14T17:50:37.100Z,-8.20
2022-12-14T17:53:08.840Z,-8.18
2022-12-14T17:55:39.797Z,-8.19
2022-12-14T17:58:12.047Z,-8.19
2022-12-14T18:01:00.560Z,-8.20
2022-12-14T18:03:34.619Z,-8.20
2022-12-14T18:06:08.188Z,-8.20
2022-12-14T18:08:40.618Z,-8.19
2022-12-14T18:11:17.384Z,-8.20
2022-12-14T18:13:51.513Z,-8.22
2022-12-14T18:16:28.839Z,-8.24
2022-12-14T18:19:01.431Z,-8.22
2022-12-14T18:21:31.715Z,-8.21
2022-12-14T18:24:26.303Z,-8.20
2022-12-14T18:26:57.347Z,-8.21
2022-12-14T18:29:29.324Z,-8.20
2022-12-14T18:32:02.763Z,-8.20
2022-12-14T18:34:43.254Z,-8.18
2022-12-14T18:37:17.429Z,-8.17
2022-12-14T18:39:50.985Z,-8.15
2022-12-14T18:42:22.866Z,-8.13
2022-12-14T18:44:55.092Z,-8.12
2022-12-14T18:47:43.954Z,-8.10
2022-12-14T18:50:17.536Z,-8.06
2022-12-14T18:52:50.227Z,-8.03
2022-12-14T18:55:29.509Z,-8.02
2022-12-14T18:58:03.066Z,-8.01
2022-12-14T19:00:38.800Z,-7.99
2022-12-14T19:03:13.312Z,-8.00
2022-12-14T19:05:45.759Z,-7.98
2022-12-14T19:08:18.841Z,-7.98
2022-12-14T19:10:50.362Z,-7.98
2022-12-14T19:13:25.951Z,-7.98
2022-12-14T19:16:02.552Z,-7.99
2022-12-14T19:18:37.031Z,-8.00
2022-12-14T19:21:11.546Z,-8.00
2022-12-14T19:23:42.750Z,-8.02
2022-12-14T19:26:15.189Z,-8.03
2022-12-14T19:28:50.671Z,-8.03
2022-12-14T19:31:22.180Z,-8.03
2022-12-14T19:33:56.534Z,-8.03
2022-12-14T19:36:36.759Z,-8.04
2022-12-14T19:39:09.802Z,-8.05
2022-12-14T19:41:57.288Z,-8.06
2022-12-14T19:44:35.256Z,-8.07
2022-12-14T19:47:09.844Z,-8.09
2022-12-14T19:49:42.714Z,-8.11
2022-12-14T19:52:17.450Z,-8.10
2022-12-14T19:54:49.689Z,-8.10
2022-12-14T19:57:21.801Z,-8.09
2022-12-14T19:59:55.223Z,-8.09
2022-12-14T20:02:31.463Z,-8.09
2022-12-14T20:05:05.571Z,-8.09
2022-12-14T20:07:43.501Z,-8.12
2022-12-14T20:10:16.495Z,-8.15
2022-12-14T20:12:48.929Z,-8.17
2022-12-14T20:15:22.099Z,-8.19
2022-12-14T20:17:55.473Z,-8.22
2022-12-14T20:20:30.824Z,-8.26
2022-12-14T20:23:02.929Z,-8.28
2022-12-14T20:25:36.312Z,-8.30
2022-12-14T20:28:07.612Z,-8.31
2022-12-14T20:30:53.110Z,-8.34
2022-12-14T20:33:29.859Z,-8.36
2022-12-14T20:36:05.194Z,-8.38
2022-12-14T20:38:37.620Z,-8.40
2022-12-14T20:41:13.812Z,-8.43
2022-12-14T20:43:47.027Z,-8.44
2022-12-14T20:46:39.883Z,-8.46
2022-12-14T20:49:35.877Z,-8.47
2022-12-14T20:52:33.537Z,-8.51
2022-12-14T20:55:08.012Z,-8.54
2022-12-14T20:57:48.509Z,-8.54
2022-12-14T21:00:18.736Z,-8.54
2022-12-14T21:02:50.143Z,-8.57
2022-12-14T21:05:21.199Z,-8.59
2022-12-14T21:07:54.098Z,-8.61
2022-12-14T21:10:24.790Z,-8.62
2022-12-14T21:12:54.819Z,-8.62
2022-12-14T21:15:27.500Z,-8.61
2022-12-14T21:17:56.930Z,-8.61
2022-12-14T21:20:28.389Z,-8.63
2022-12-14T21:22:57.958Z,-8.63
2022-12-14T21:25:28.683Z,-8.64
2022-12-14T21:28:00.183Z,-8.66
2022-12-14T21:31:15.499Z,-8.66
2022-12-14T21:34:00.259Z,-8.65
2022-12-14T21:36:34.460Z,-8.64
2022-12-14T21:39:13.374Z,-8.64
2022-12-14T21:42:02.631Z,-8.63
2022-12-14T21:44:35.268Z,-8.64
2022-12-14T21:47:07.320Z,-8.64
2022-12-14T21:49:38.324Z,-8.65
2022-12-14T21:52:08.742Z,-8.65
2022-12-14T21:54:39.810Z,-8.66
2022-12-14T21:57:35.623Z,-8.66
2022-12-14T22:00:07.716Z,-8.67
2022-12-14T22:02:43.003Z,-8.69
2022-12-14T22:05:12.463Z,-8.71
2022-12-14T22:07:42.305Z,-8.72
2022-12-14T22:10:11.633Z,-8.74
2022-12-14T22:12:42.582Z,-8.74
2022-12-14T22:15:11.735Z,-8.76
2022-12-14T22:17:40.775Z,-8.77
2022-12-14T22:20:12.369Z,-8.80
2022-12-14T22:22:41.523Z,-8.81
2022-12-14T22:25:10.578Z,-8.82
2022-12-14T22:27:39.700Z,-8.83
2022-12-14T22:30:12.540Z,-8.85
2022-12-14T22:32:42.739Z,-8.87
2022-12-14T22:35:13.679Z,-8.87
2022-12-14T22:37:42.682Z,-8.89
2022-12-14T22:40:13.195Z,-8.91
2022-12-14T22:42:42.196Z,-8.94
2022-12-14T22:45:13.023Z,-8.97
2022-12-14T22:47:46.125Z,-9.00
2022-12-14T22:50:16.482Z,-9.03
2022-12-14T22:52:49.633Z,-9.06
2022-12-14T22:55:19.082Z,-9.09
2022-12-14T22:57:48.756Z,-9.12
2022-12-14T23:00:23.003Z,-9.15
2022-12-14T23:02:54.436Z,-9.18
2022-12-14T23:05:24.556Z,-9.20
2022-12-14T23:07:53.871Z,-9.22
2022-12-14T23:10:42.141Z,-9.22
2022-12-14T23:13:32.287Z,-9.23
2022-12-14T23:16:22.495Z,-9.26
2022-12-14T23:19:11.368Z,-9.29
2022-12-14T23:22:01.630Z,-9.31
2022-12-14T23:24:50.498Z,-9.33
2022-12-14T23:27:38.802Z,-9.34
2022-12-14T23:30:28.288Z,-9.36
2022-12-14T23:33:18.005Z,-9.39
2022-12-14T23:36:07.485Z,-9.40
2022-12-14T23:38:56.755Z,-9.42
2022-12-14T23:41:44.328Z,-9.42
2022-12-14T23:44:32.057Z,-9.39
2022-12-14T23:47:19.678Z,-9.40
2022-12-14T23:50:07.993Z,-9.44
2022-12-14T23:52:56.092Z,-9.45
2022-12-14T23:55:44.926Z,-9.39
2022-12-14T23:58:32.765Z,-9.36
